sensor_id;sensor_type;location;lat;lon;timestamp;P1;durP1;ratioP1;P2;durP2;ratioP2
28682;SDS011;15862;43.062;25.626;2022-11-20T00:01:39;14.25;;;3.78;;
28682;SDS011;15862;43.062;25.626;2022-11-20T00:04:05;8.95;;;3.72;;
28682;SDS011;15862;43.062;25.626;2022-11-20T00:06:31;11.85;;;4.60;;
28682;SDS011;15862;43.062;25.626;2022-11-20T00:08:57;13.55;;;4.10;;
28682;SDS011;15862;43.062;25.626;2022-11-20T00:11:25;16.70;;;4.65;;
28682;SDS011;15862;43.062;25.626;2022-11-20T00:13:53;11.00;;;3.65;;
28682;SDS011;15862;43.062;25.626;2022-11-20T00:16:22;13.20;;;3.88;;
28682;SDS011;15862;43.062;25.626;2022-11-20T00:18:49;10.93;;;4.75;;
28682;SDS011;15862;43.062;25.626;2022-11-20T00:21:16;12.80;;;3.97;;
28682;SDS011;15862;43.062;25.626;2022-11-20T00:23:44;11.75;;;4.00;;
28682;SDS011;15862;43.062;25.626;2022-11-20T00:26:11;11.85;;;3.38;;
28682;SDS011;15862;43.062;25.626;2022-11-20T00:28:38;10.25;;;4.13;;
28682;SDS011;15862;43.062;25.626;2022-11-20T00:31:06;10.77;;;4.32;;
28682;SDS011;15862;43.062;25.626;2022-11-20T00:33:35;8.80;;;3.13;;
28682;SDS011;15862;43.062;25.626;2022-11-20T00:36:07;11.65;;;3.50;;
28682;SDS011;15862;43.062;25.626;2022-11-20T00:38:34;6.53;;;2.85;;
28682;SDS011;15862;43.062;25.626;2022-11-20T00:41:01;9.15;;;3.42;;
28682;SDS011;15862;43.062;25.626;2022-11-20T00:43:28;9.25;;;3.75;;
28682;SDS011;15862;43.062;25.626;2022-11-20T00:45:58;10.15;;;3.88;;
28682;SDS011;15862;43.062;25.626;2022-11-20T00:48:23;8.15;;;3.80;;
28682;SDS011;15862;43.062;25.626;2022-11-20T00:50:49;7.90;;;3.13;;
28682;SDS011;15862;43.062;25.626;2022-11-20T00:53:14;13.15;;;3.75;;
28682;SDS011;15862;43.062;25.626;2022-11-20T00:55:40;9.60;;;3.35;;
28682;SDS011;15862;43.062;25.626;2022-11-20T00:58:05;9.57;;;3.17;;
28682;SDS011;15862;43.062;25.626;2022-11-20T01:00:31;14.50;;;3.45;;
28682;SDS011;15862;43.062;25.626;2022-11-20T01:02:57;9.48;;;3.90;;
28682;SDS011;15862;43.062;25.626;2022-11-20T01:05:22;16.20;;;4.95;;
28682;SDS011;15862;43.062;25.626;2022-11-20T01:07:47;8.75;;;3.50;;
28682;SDS011;15862;43.062;25.626;2022-11-20T01:10:13;13.25;;;3.47;;
28682;SDS011;15862;43.062;25.626;2022-11-20T01:12:38;10.48;;;2.95;;
28682;SDS011;15862;43.062;25.626;2022-11-20T01:15:04;11.10;;;3.70;;
28682;SDS011;15862;43.062;25.626;2022-11-20T01:17:30;12.05;;;3.33;;
28682;SDS011;15862;43.062;25.626;2022-11-20T01:19:56;10.45;;;3.88;;
28682;SDS011;15862;43.062;25.626;2022-11-20T01:22:22;12.02;;;3.53;;
28682;SDS011;15862;43.062;25.626;2022-11-20T01:24:47;10.60;;;2.80;;
28682;SDS011;15862;43.062;25.626;2022-11-20T01:27:13;17.27;;;4.28;;
28682;SDS011;15862;43.062;25.626;2022-11-20T01:29:38;10.27;;;3.20;;
28682;SDS011;15862;43.062;25.626;2022-11-20T01:32:03;7.55;;;2.63;;
28682;SDS011;15862;43.062;25.626;2022-11-20T01:34:29;8.75;;;2.90;;
28682;SDS011;15862;43.062;25.626;2022-11-20T01:36:55;7.13;;;2.85;;
28682;SDS011;15862;43.062;25.626;2022-11-20T01:39:21;5.25;;;3.13;;
28682;SDS011;15862;43.062;25.626;2022-11-20T01:41:49;11.05;;;3.58;;
28682;SDS011;15862;43.062;25.626;2022-11-20T01:44:45;8.55;;;3.10;;
28682;SDS011;15862;43.062;25.626;2022-11-20T01:47:13;8.85;;;3.33;;
28682;SDS011;15862;43.062;25.626;2022-11-20T01:49:42;7.97;;;2.45;;
28682;SDS011;15862;43.062;25.626;2022-11-20T01:52:17;8.82;;;3.15;;
28682;SDS011;15862;43.062;25.626;2022-11-20T01:54:50;12.23;;;3.17;;
28682;SDS011;15862;43.062;25.626;2022-11-20T01:57:19;12.32;;;3.45;;
28682;SDS011;15862;43.062;25.626;2022-11-20T01:59:49;13.65;;;3.47;;
28682;SDS011;15862;43.062;25.626;2022-11-20T02:02:23;9.27;;;3.03;;
28682;SDS011;15862;43.062;25.626;2022-11-20T02:04:49;4.85;;;2.65;;
28682;SDS011;15862;43.062;25.626;2022-11-20T02:07:18;8.07;;;3.30;;
28682;SDS011;15862;43.062;25.626;2022-11-20T02:09:45;9.77;;;4.15;;
28682;SDS011;15862;43.062;25.626;2022-11-20T02:12:10;8.30;;;3.20;;
28682;SDS011;15862;43.062;25.626;2022-11-20T02:14:56;7.95;;;3.40;;
28682;SDS011;15862;43.062;25.626;2022-11-20T02:17:22;9.38;;;3.00;;
28682;SDS011;15862;43.062;25.626;2022-11-20T02:19:48;10.68;;;3.35;;
28682;SDS011;15862;43.062;25.626;2022-11-20T02:22:14;8.05;;;3.10;;
28682;SDS011;15862;43.062;25.626;2022-11-20T02:24:46;8.40;;;2.78;;
28682;SDS011;15862;43.062;25.626;2022-11-20T02:27:14;13.20;;;3.17;;
28682;SDS011;15862;43.062;25.626;2022-11-20T02:32:20;8.65;;;3.38;;
28682;SDS011;15862;43.062;25.626;2022-11-20T02:34:48;12.52;;;3.40;;
28682;SDS011;15862;43.062;25.626;2022-11-20T02:37:14;9.00;;;3.50;;
28682;SDS011;15862;43.062;25.626;2022-11-20T02:39:40;7.38;;;2.60;;
28682;SDS011;15862;43.062;25.626;2022-11-20T02:42:06;14.18;;;3.70;;
28682;SDS011;15862;43.062;25.626;2022-11-20T02:44:32;12.10;;;3.65;;
28682;SDS011;15862;43.062;25.626;2022-11-20T02:46:58;8.73;;;2.65;;
28682;SDS011;15862;43.062;25.626;2022-11-20T02:49:24;7.93;;;2.67;;
28682;SDS011;15862;43.062;25.626;2022-11-20T02:51:50;8.75;;;2.53;;
28682;SDS011;15862;43.062;25.626;2022-11-20T02:54:16;10.82;;;2.72;;
28682;SDS011;15862;43.062;25.626;2022-11-20T02:56:41;7.43;;;3.47;;
28682;SDS011;15862;43.062;25.626;2022-11-20T02:59:07;8.05;;;2.75;;
28682;SDS011;15862;43.062;25.626;2022-11-20T03:01:32;7.70;;;2.50;;
28682;SDS011;15862;43.062;25.626;2022-11-20T03:03:58;8.27;;;3.05;;
28682;SDS011;15862;43.062;25.626;2022-11-20T03:06:24;10.35;;;2.65;;
28682;SDS011;15862;43.062;25.626;2022-11-20T03:08:49;11.70;;;3.55;;
28682;SDS011;15862;43.062;25.626;2022-11-20T03:11:16;14.63;;;3.72;;
28682;SDS011;15862;43.062;25.626;2022-11-20T03:13:42;7.47;;;2.50;;
28682;SDS011;15862;43.062;25.626;2022-11-20T03:16:11;8.82;;;2.83;;
28682;SDS011;15862;43.062;25.626;2022-11-20T03:18:40;10.07;;;3.63;;
28682;SDS011;15862;43.062;25.626;2022-11-20T03:21:06;6.43;;;3.75;;
28682;SDS011;15862;43.062;25.626;2022-11-20T03:23:33;8.70;;;2.42;;
28682;SDS011;15862;43.062;25.626;2022-11-20T03:28:36;9.57;;;2.78;;
28682;SDS011;15862;43.062;25.626;2022-11-20T03:31:09;14.50;;;3.05;;
28682;SDS011;15862;43.062;25.626;2022-11-20T03:33:36;7.65;;;2.67;;
28682;SDS011;15862;43.062;25.626;2022-11-20T03:36:03;8.48;;;2.67;;
28682;SDS011;15862;43.062;25.626;2022-11-20T03:38:30;9.40;;;3.17;;
28682;SDS011;15862;43.062;25.626;2022-11-20T03:41:03;5.80;;;2.40;;
28682;SDS011;15862;43.062;25.626;2022-11-20T03:43:31;7.72;;;2.78;;
28682;SDS011;15862;43.062;25.626;2022-11-20T03:45:56;7.88;;;2.60;;
28682;SDS011;15862;43.062;25.626;2022-11-20T03:48:23;8.35;;;2.78;;
28682;SDS011;15862;43.062;25.626;2022-11-20T03:50:49;10.18;;;2.63;;
28682;SDS011;15862;43.062;25.626;2022-11-20T03:53:14;7.78;;;3.00;;
28682;SDS011;15862;43.062;25.626;2022-11-20T03:55:40;7.65;;;2.38;;
28682;SDS011;15862;43.062;25.626;2022-11-20T03:58:06;8.20;;;2.88;;
28682;SDS011;15862;43.062;25.626;2022-11-20T04:00:31;11.68;;;2.25;;
28682;SDS011;15862;43.062;25.626;2022-11-20T04:02:58;12.85;;;2.50;;
28682;SDS011;15862;43.062;25.626;2022-11-20T04:05:24;5.32;;;2.97;;
28682;SDS011;15862;43.062;25.626;2022-11-20T04:07:49;10.77;;;2.67;;
28682;SDS011;15862;43.062;25.626;2022-11-20T04:10:15;11.90;;;3.08;;
28682;SDS011;15862;43.062;25.626;2022-11-20T04:12:40;11.57;;;2.70;;
28682;SDS011;15862;43.062;25.626;2022-11-20T04:15:06;11.32;;;2.97;;
28682;SDS011;15862;43.062;25.626;2022-11-20T04:17:31;11.15;;;3.25;;
28682;SDS011;15862;43.062;25.626;2022-11-20T04:19:57;8.82;;;2.63;;
28682;SDS011;15862;43.062;25.626;2022-11-20T04:22:22;8.05;;;2.38;;
28682;SDS011;15862;43.062;25.626;2022-11-20T04:24:48;7.20;;;2.22;;
28682;SDS011;15862;43.062;25.626;2022-11-20T04:27:13;9.68;;;3.22;;
28682;SDS011;15862;43.062;25.626;2022-11-20T04:29:38;8.35;;;2.30;;
28682;SDS011;15862;43.062;25.626;2022-11-20T04:32:04;6.63;;;2.30;;
28682;SDS011;15862;43.062;25.626;2022-11-20T04:34:29;9.10;;;3.08;;
28682;SDS011;15862;43.062;25.626;2022-11-20T04:36:55;9.10;;;2.60;;
28682;SDS011;15862;43.062;25.626;2022-11-20T04:39:20;8.65;;;2.40;;
28682;SDS011;15862;43.062;25.626;2022-11-20T04:41:46;9.32;;;3.92;;
28682;SDS011;15862;43.062;25.626;2022-11-20T04:44:11;8.60;;;2.50;;
28682;SDS011;15862;43.062;25.626;2022-11-20T04:46:38;10.30;;;2.38;;
28682;SDS011;15862;43.062;25.626;2022-11-20T04:49:05;9.68;;;3.53;;
28682;SDS011;15862;43.062;25.626;2022-11-20T04:51:31;8.82;;;2.72;;
28682;SDS011;15862;43.062;25.626;2022-11-20T04:53:57;7.05;;;2.40;;
28682;SDS011;15862;43.062;25.626;2022-11-20T04:56:23;9.68;;;3.63;;
28682;SDS011;15862;43.062;25.626;2022-11-20T04:58:49;8.73;;;2.63;;
28682;SDS011;15862;43.062;25.626;2022-11-20T05:01:15;10.23;;;2.85;;
28682;SDS011;15862;43.062;25.626;2022-11-20T05:03:42;10.00;;;2.47;;
28682;SDS011;15862;43.062;25.626;2022-11-20T05:06:09;9.65;;;2.78;;
28682;SDS011;15862;43.062;25.626;2022-11-20T05:08:36;8.05;;;2.95;;
28682;SDS011;15862;43.062;25.626;2022-11-20T05:11:03;7.75;;;2.90;;
28682;SDS011;15862;43.062;25.626;2022-11-20T05:13:31;16.08;;;2.67;;
28682;SDS011;15862;43.062;25.626;2022-11-20T05:16:07;10.20;;;2.35;;
28682;SDS011;15862;43.062;25.626;2022-11-20T05:18:34;9.65;;;3.10;;
28682;SDS011;15862;43.062;25.626;2022-11-20T05:20:59;5.50;;;2.50;;
28682;SDS011;15862;43.062;25.626;2022-11-20T05:23:25;14.82;;;3.35;;
28682;SDS011;15862;43.062;25.626;2022-11-20T05:25:52;6.75;;;2.42;;
28682;SDS011;15862;43.062;25.626;2022-11-20T05:28:18;13.25;;;2.38;;
28682;SDS011;15862;43.062;25.626;2022-11-20T05:30:44;3.65;;;1.77;;
28682;SDS011;15862;43.062;25.626;2022-11-20T05:33:09;7.60;;;2.17;;
28682;SDS011;15862;43.062;25.626;2022-11-20T05:35:35;5.13;;;1.95;;
28682;SDS011;15862;43.062;25.626;2022-11-20T05:38:00;8.60;;;2.38;;
28682;SDS011;15862;43.062;25.626;2022-11-20T05:40:25;9.18;;;2.15;;
28682;SDS011;15862;43.062;25.626;2022-11-20T05:42:51;5.90;;;2.38;;
28682;SDS011;15862;43.062;25.626;2022-11-20T05:45:16;7.35;;;2.50;;
28682;SDS011;15862;43.062;25.626;2022-11-20T05:47:41;10.43;;;1.92;;
28682;SDS011;15862;43.062;25.626;2022-11-20T05:50:07;8.80;;;2.35;;
28682;SDS011;15862;43.062;25.626;2022-11-20T05:52:33;10.60;;;2.25;;
28682;SDS011;15862;43.062;25.626;2022-11-20T05:54:58;9.32;;;2.55;;
28682;SDS011;15862;43.062;25.626;2022-11-20T05:57:23;8.02;;;2.40;;
28682;SDS011;15862;43.062;25.626;2022-11-20T05:59:49;8.35;;;2.50;;
28682;SDS011;15862;43.062;25.626;2022-11-20T06:02:14;8.18;;;2.60;;
28682;SDS011;15862;43.062;25.626;2022-11-20T06:04:40;6.88;;;1.70;;
28682;SDS011;15862;43.062;25.626;2022-11-20T06:07:05;10.02;;;2.00;;
28682;SDS011;15862;43.062;25.626;2022-11-20T06:09:31;6.60;;;2.65;;
28682;SDS011;15862;43.062;25.626;2022-11-20T06:11:57;7.22;;;2.42;;
28682;SDS011;15862;43.062;25.626;2022-11-20T06:14:22;10.60;;;1.65;;
28682;SDS011;15862;43.062;25.626;2022-11-20T06:16:48;8.15;;;3.28;;
28682;SDS011;15862;43.062;25.626;2022-11-20T06:19:13;9.23;;;4.13;;
28682;SDS011;15862;43.062;25.626;2022-11-20T06:21:40;16.33;;;6.65;;
28682;SDS011;15862;43.062;25.626;2022-11-20T06:24:05;13.55;;;4.57;;
28682;SDS011;15862;43.062;25.626;2022-11-20T06:26:31;8.13;;;5.30;;
28682;SDS011;15862;43.062;25.626;2022-11-20T06:28:56;14.02;;;6.07;;
28682;SDS011;15862;43.062;25.626;2022-11-20T06:31:22;11.98;;;5.95;;
28682;SDS011;15862;43.062;25.626;2022-11-20T06:33:49;11.07;;;6.45;;
28682;SDS011;15862;43.062;25.626;2022-11-20T06:36:16;36.15;;;26.55;;
28682;SDS011;15862;43.062;25.626;2022-11-20T06:38:44;17.75;;;11.02;;
28682;SDS011;15862;43.062;25.626;2022-11-20T06:41:11;11.95;;;5.65;;
28682;SDS011;15862;43.062;25.626;2022-11-20T06:43:38;10.60;;;5.88;;
28682;SDS011;15862;43.062;25.626;2022-11-20T06:46:04;12.13;;;6.35;;
28682;SDS011;15862;43.062;25.626;2022-11-20T06:48:29;12.88;;;6.45;;
28682;SDS011;15862;43.062;25.626;2022-11-20T06:50:55;12.77;;;7.05;;
28682;SDS011;15862;43.062;25.626;2022-11-20T06:53:22;11.05;;;7.50;;
28682;SDS011;15862;43.062;25.626;2022-11-20T06:55:48;11.05;;;8.70;;
28682;SDS011;15862;43.062;25.626;2022-11-20T06:58:15;12.63;;;8.90;;
28682;SDS011;15862;43.062;25.626;2022-11-20T07:00:40;16.23;;;8.80;;
28682;SDS011;15862;43.062;25.626;2022-11-20T07:03:07;12.48;;;9.40;;
28682;SDS011;15862;43.062;25.626;2022-11-20T07:05:35;13.00;;;10.13;;
28682;SDS011;15862;43.062;25.626;2022-11-20T07:08:01;16.98;;;11.15;;
28682;SDS011;15862;43.062;25.626;2022-11-20T07:10:27;16.50;;;11.73;;
28682;SDS011;15862;43.062;25.626;2022-11-20T07:12:53;18.77;;;12.38;;
28682;SDS011;15862;43.062;25.626;2022-11-20T07:15:19;19.45;;;14.35;;
28682;SDS011;15862;43.062;25.626;2022-11-20T07:17:47;21.30;;;15.10;;
28682;SDS011;15862;43.062;25.626;2022-11-20T07:20:13;23.10;;;15.55;;
28682;SDS011;15862;43.062;25.626;2022-11-20T07:22:38;22.77;;;15.95;;
28682;SDS011;15862;43.062;25.626;2022-11-20T07:25:04;22.85;;;15.55;;
28682;SDS011;15862;43.062;25.626;2022-11-20T07:27:30;31.05;;;17.17;;
28682;SDS011;15862;43.062;25.626;2022-11-20T07:29:56;26.38;;;17.95;;
28682;SDS011;15862;43.062;25.626;2022-11-20T07:32:22;27.40;;;17.83;;
28682;SDS011;15862;43.062;25.626;2022-11-20T07:34:48;28.33;;;17.88;;
28682;SDS011;15862;43.062;25.626;2022-11-20T07:37:14;35.13;;;18.63;;
28682;SDS011;15862;43.062;25.626;2022-11-20T07:39:39;31.55;;;19.13;;
28682;SDS011;15862;43.062;25.626;2022-11-20T07:42:08;33.78;;;21.30;;
28682;SDS011;15862;43.062;25.626;2022-11-20T07:44:33;39.45;;;19.60;;
28682;SDS011;15862;43.062;25.626;2022-11-20T07:46:59;38.50;;;19.83;;
28682;SDS011;15862;43.062;25.626;2022-11-20T07:49:25;37.28;;;20.85;;
28682;SDS011;15862;43.062;25.626;2022-11-20T07:51:50;38.22;;;20.52;;
28682;SDS011;15862;43.062;25.626;2022-11-20T07:54:18;35.33;;;20.10;;
28682;SDS011;15862;43.062;25.626;2022-11-20T07:56:43;34.67;;;20.35;;
28682;SDS011;15862;43.062;25.626;2022-11-20T07:59:08;32.67;;;19.42;;
28682;SDS011;15862;43.062;25.626;2022-11-20T08:01:36;39.80;;;20.65;;
28682;SDS011;15862;43.062;25.626;2022-11-20T08:04:02;34.95;;;19.75;;
28682;SDS011;15862;43.062;25.626;2022-11-20T08:06:28;33.60;;;19.20;;
28682;SDS011;15862;43.062;25.626;2022-11-20T08:08:53;33.08;;;19.52;;
28682;SDS011;15862;43.062;25.626;2022-11-20T08:11:19;39.05;;;19.65;;
28682;SDS011;15862;43.062;25.626;2022-11-20T08:14:03;33.40;;;19.38;;
28682;SDS011;15862;43.062;25.626;2022-11-20T08:16:38;33.40;;;17.98;;
28682;SDS011;15862;43.062;25.626;2022-11-20T08:19:10;34.67;;;19.05;;
28682;SDS011;15862;43.062;25.626;2022-11-20T08:21:36;31.35;;;17.70;;
28682;SDS011;15862;43.062;25.626;2022-11-20T08:24:01;33.45;;;19.83;;
28682;SDS011;15862;43.062;25.626;2022-11-20T08:26:27;33.72;;;19.83;;
28682;SDS011;15862;43.062;25.626;2022-11-20T08:28:53;36.08;;;18.48;;
28682;SDS011;15862;43.062;25.626;2022-11-20T08:31:19;36.55;;;19.55;;
28682;SDS011;15862;43.062;25.626;2022-11-20T08:33:46;31.35;;;17.98;;
28682;SDS011;15862;43.062;25.626;2022-11-20T08:36:11;32.72;;;19.40;;
28682;SDS011;15862;43.062;25.626;2022-11-20T08:38:37;33.72;;;20.95;;
28682;SDS011;15862;43.062;25.626;2022-11-20T08:41:03;35.65;;;20.35;;
28682;SDS011;15862;43.062;25.626;2022-11-20T08:43:48;30.52;;;19.27;;
28682;SDS011;15862;43.062;25.626;2022-11-20T08:46:14;32.88;;;19.52;;
28682;SDS011;15862;43.062;25.626;2022-11-20T08:48:40;36.45;;;19.63;;
28682;SDS011;15862;43.062;25.626;2022-11-20T08:51:05;34.30;;;20.45;;
28682;SDS011;15862;43.062;25.626;2022-11-20T08:53:31;34.30;;;20.23;;
28682;SDS011;15862;43.062;25.626;2022-11-20T08:55:56;33.10;;;20.33;;
28682;SDS011;15862;43.062;25.626;2022-11-20T08:58:23;38.08;;;20.55;;
28682;SDS011;15862;43.062;25.626;2022-11-20T09:00:48;34.67;;;21.73;;
28682;SDS011;15862;43.062;25.626;2022-11-20T09:03:14;35.10;;;20.00;;
28682;SDS011;15862;43.062;25.626;2022-11-20T09:05:39;44.08;;;23.23;;
28682;SDS011;15862;43.062;25.626;2022-11-20T09:08:05;45.33;;;23.77;;
28682;SDS011;15862;43.062;25.626;2022-11-20T09:10:30;37.30;;;21.38;;
28682;SDS011;15862;43.062;25.626;2022-11-20T09:12:57;38.45;;;21.35;;
28682;SDS011;15862;43.062;25.626;2022-11-20T09:15:23;36.05;;;22.88;;
28682;SDS011;15862;43.062;25.626;2022-11-20T09:20:17;37.95;;;22.73;;
28682;SDS011;15862;43.062;25.626;2022-11-20T09:22:43;38.25;;;22.30;;
28682;SDS011;15862;43.062;25.626;2022-11-20T09:25:09;35.25;;;21.42;;
28682;SDS011;15862;43.062;25.626;2022-11-20T09:27:34;34.33;;;21.08;;
28682;SDS011;15862;43.062;25.626;2022-11-20T09:30:00;40.47;;;21.70;;
28682;SDS011;15862;43.062;25.626;2022-11-20T09:32:26;32.17;;;18.52;;
28682;SDS011;15862;43.062;25.626;2022-11-20T09:34:51;28.70;;;18.63;;
28682;SDS011;15862;43.062;25.626;2022-11-20T09:37:17;32.60;;;19.35;;
28682;SDS011;15862;43.062;25.626;2022-11-20T09:39:42;29.80;;;18.92;;
28682;SDS011;15862;43.062;25.626;2022-11-20T09:47:51;31.77;;;18.33;;
28682;SDS011;15862;43.062;25.626;2022-11-20T09:55:37;33.17;;;17.25;;
28682;SDS011;15862;43.062;25.626;2022-11-20T09:58:07;26.42;;;18.27;;
28682;SDS011;15862;43.062;25.626;2022-11-20T10:00:59;31.85;;;18.77;;
28682;SDS011;15862;43.062;25.626;2022-11-20T10:04:13;27.95;;;18.13;;
28682;SDS011;15862;43.062;25.626;2022-11-20T10:09:35;23.98;;;15.20;;
28682;SDS011;15862;43.062;25.626;2022-11-20T10:25:43;32.10;;;19.10;;
28682;SDS011;15862;43.062;25.626;2022-11-20T10:30:43;27.25;;;17.58;;
28682;SDS011;15862;43.062;25.626;2022-11-20T10:33:21;28.92;;;18.60;;
28682;SDS011;15862;43.062;25.626;2022-11-20T10:38:21;26.25;;;16.52;;
28682;SDS011;15862;43.062;25.626;2022-11-20T10:40:57;31.50;;;18.35;;
28682;SDS011;15862;43.062;25.626;2022-11-20T10:43:44;33.33;;;21.10;;
28682;SDS011;15862;43.062;25.626;2022-11-20T10:46:18;31.20;;;20.23;;
28682;SDS011;15862;43.062;25.626;2022-11-20T10:48:47;32.63;;;20.50;;
28682;SDS011;15862;43.062;25.626;2022-11-20T11:02:12;34.05;;;20.27;;
28682;SDS011;15862;43.062;25.626;2022-11-20T11:04:40;32.15;;;19.58;;
28682;SDS011;15862;43.062;25.626;2022-11-20T11:07:12;32.90;;;20.00;;
28682;SDS011;15862;43.062;25.626;2022-11-20T11:09:58;30.10;;;19.95;;
28682;SDS011;15862;43.062;25.626;2022-11-20T11:12:25;32.78;;;19.35;;
28682;SDS011;15862;43.062;25.626;2022-11-20T11:14:53;30.55;;;18.88;;
28682;SDS011;15862;43.062;25.626;2022-11-20T11:19:58;32.50;;;20.15;;
28682;SDS011;15862;43.062;25.626;2022-11-20T11:22:25;30.08;;;19.50;;
28682;SDS011;15862;43.062;25.626;2022-11-20T11:24:54;33.92;;;20.25;;
28682;SDS011;15862;43.062;25.626;2022-11-20T11:27:19;28.52;;;18.13;;
28682;SDS011;15862;43.062;25.626;2022-11-20T11:29:45;35.85;;;19.55;;
28682;SDS011;15862;43.062;25.626;2022-11-20T11:32:12;31.63;;;19.85;;
28682;SDS011;15862;43.062;25.626;2022-11-20T11:34:39;30.33;;;19.45;;
28682;SDS011;15862;43.062;25.626;2022-11-20T11:37:09;30.63;;;18.85;;
28682;SDS011;15862;43.062;25.626;2022-11-20T11:39:40;31.58;;;17.98;;
28682;SDS011;15862;43.062;25.626;2022-11-20T11:42:07;27.63;;;16.92;;
28682;SDS011;15862;43.062;25.626;2022-11-20T11:44:38;28.58;;;17.77;;
28682;SDS011;15862;43.062;25.626;2022-11-20T11:47:32;28.92;;;18.25;;
28682;SDS011;15862;43.062;25.626;2022-11-20T12:00:47;30.23;;;17.70;;
28682;SDS011;15862;43.062;25.626;2022-11-20T12:03:24;28.17;;;16.98;;
28682;SDS011;15862;43.062;25.626;2022-11-20T12:06:12;26.75;;;17.65;;
28682;SDS011;15862;43.062;25.626;2022-11-20T12:11:13;31.42;;;18.48;;
28682;SDS011;15862;43.062;25.626;2022-11-20T12:13:44;24.65;;;16.58;;
28682;SDS011;15862;43.062;25.626;2022-11-20T12:16:20;27.75;;;16.45;;
28682;SDS011;15862;43.062;25.626;2022-11-20T12:18:51;28.08;;;17.42;;
28682;SDS011;15862;43.062;25.626;2022-11-20T12:29:07;30.65;;;20.27;;
28682;SDS011;15862;43.062;25.626;2022-11-20T12:38:07;28.30;;;18.20;;
28682;SDS011;15862;43.062;25.626;2022-11-20T12:40:50;32.08;;;18.83;;
28682;SDS011;15862;43.062;25.626;2022-11-20T12:43:42;27.55;;;18.92;;
28682;SDS011;15862;43.062;25.626;2022-11-20T12:46:48;33.38;;;20.63;;
28682;SDS011;15862;43.062;25.626;2022-11-20T12:54:44;36.30;;;21.23;;
28682;SDS011;15862;43.062;25.626;2022-11-20T13:08:35;33.42;;;21.67;;
28682;SDS011;15862;43.062;25.626;2022-11-20T13:11:07;33.75;;;22.17;;
28682;SDS011;15862;43.062;25.626;2022-11-20T13:13:40;38.38;;;23.85;;
28682;SDS011;15862;43.062;25.626;2022-11-20T13:19:03;34.50;;;21.77;;
28682;SDS011;15862;43.062;25.626;2022-11-20T13:21:37;32.08;;;22.35;;
28682;SDS011;15862;43.062;25.626;2022-11-20T13:24:19;35.20;;;22.38;;
28682;SDS011;15862;43.062;25.626;2022-11-20T13:26:59;40.80;;;25.48;;
28682;SDS011;15862;43.062;25.626;2022-11-20T13:29:28;43.28;;;26.42;;
28682;SDS011;15862;43.062;25.626;2022-11-20T13:32:12;42.80;;;25.27;;
28682;SDS011;15862;43.062;25.626;2022-11-20T13:34:56;42.92;;;26.73;;
28682;SDS011;15862;43.062;25.626;2022-11-20T13:37:36;39.63;;;25.80;;
28682;SDS011;15862;43.062;25.626;2022-11-20T13:45:10;44.80;;;27.05;;
28682;SDS011;15862;43.062;25.626;2022-11-20T13:47:50;42.70;;;25.90;;
28682;SDS011;15862;43.062;25.626;2022-11-20T13:50:17;47.17;;;26.52;;
28682;SDS011;15862;43.062;25.626;2022-11-20T13:57:57;43.60;;;26.58;;
28682;SDS011;15862;43.062;25.626;2022-11-20T14:00:25;44.55;;;25.98;;
28682;SDS011;15862;43.062;25.626;2022-11-20T14:05:35;49.30;;;27.83;;
28682;SDS011;15862;43.062;25.626;2022-11-20T14:08:05;50.08;;;26.00;;
28682;SDS011;15862;43.062;25.626;2022-11-20T14:10:38;52.88;;;29.23;;
28682;SDS011;15862;43.062;25.626;2022-11-20T14:13:12;48.08;;;28.10;;
28682;SDS011;15862;43.062;25.626;2022-11-20T14:15:43;44.55;;;28.00;;
28682;SDS011;15862;43.062;25.626;2022-11-20T14:18:19;43.67;;;25.90;;
28682;SDS011;15862;43.062;25.626;2022-11-20T14:20:46;49.60;;;26.65;;
28682;SDS011;15862;43.062;25.626;2022-11-20T14:23:12;51.83;;;28.92;;
28682;SDS011;15862;43.062;25.626;2022-11-20T14:25:47;45.90;;;26.95;;
28682;SDS011;15862;43.062;25.626;2022-11-20T14:28:18;53.60;;;27.58;;
28682;SDS011;15862;43.062;25.626;2022-11-20T14:30:56;50.55;;;29.35;;
28682;SDS011;15862;43.062;25.626;2022-11-20T14:33:22;56.60;;;30.20;;
28682;SDS011;15862;43.062;25.626;2022-11-20T14:35:59;55.40;;;31.95;;
28682;SDS011;15862;43.062;25.626;2022-11-20T14:38:25;58.05;;;35.22;;
28682;SDS011;15862;43.062;25.626;2022-11-20T14:40:52;64.95;;;37.78;;
28682;SDS011;15862;43.062;25.626;2022-11-20T14:43:19;64.57;;;39.63;;
28682;SDS011;15862;43.062;25.626;2022-11-20T14:45:59;64.50;;;37.83;;
28682;SDS011;15862;43.062;25.626;2022-11-20T14:48:32;59.90;;;32.75;;
28682;SDS011;15862;43.062;25.626;2022-11-20T14:51:02;78.32;;;39.58;;
28682;SDS011;15862;43.062;25.626;2022-11-20T14:53:27;62.25;;;37.47;;
28682;SDS011;15862;43.062;25.626;2022-11-20T14:55:57;40.25;;;22.25;;
28682;SDS011;15862;43.062;25.626;2022-11-20T14:58:25;24.73;;;14.73;;
28682;SDS011;15862;43.062;25.626;2022-11-20T15:01:04;32.65;;;20.58;;
28682;SDS011;15862;43.062;25.626;2022-11-20T15:03:36;43.42;;;27.52;;
28682;SDS011;15862;43.062;25.626;2022-11-20T15:06:03;43.33;;;26.77;;
28682;SDS011;15862;43.062;25.626;2022-11-20T15:08:29;57.97;;;34.33;;
28682;SDS011;15862;43.062;25.626;2022-11-20T15:10:55;52.58;;;31.67;;
28682;SDS011;15862;43.062;25.626;2022-11-20T15:13:26;28.77;;;17.73;;
28682;SDS011;15862;43.062;25.626;2022-11-20T15:15:56;29.35;;;15.80;;
28682;SDS011;15862;43.062;25.626;2022-11-20T15:20:57;22.27;;;14.10;;
28682;SDS011;15862;43.062;25.626;2022-11-20T15:23:26;24.02;;;15.80;;
28682;SDS011;15862;43.062;25.626;2022-11-20T15:25:53;29.45;;;18.35;;
28682;SDS011;15862;43.062;25.626;2022-11-20T15:30:52;40.00;;;23.73;;
28682;SDS011;15862;43.062;25.626;2022-11-20T15:33:17;40.35;;;26.17;;
28682;SDS011;15862;43.062;25.626;2022-11-20T15:35:43;46.50;;;30.23;;
28682;SDS011;15862;43.062;25.626;2022-11-20T15:38:09;46.03;;;28.83;;
28682;SDS011;15862;43.062;25.626;2022-11-20T15:40:35;46.35;;;28.70;;
28682;SDS011;15862;43.062;25.626;2022-11-20T15:43:00;42.00;;;24.95;;
28682;SDS011;15862;43.062;25.626;2022-11-20T15:45:44;42.20;;;23.33;;
28682;SDS011;15862;43.062;25.626;2022-11-20T15:48:22;31.55;;;20.90;;
28682;SDS011;15862;43.062;25.626;2022-11-20T15:50:53;34.88;;;20.75;;
28682;SDS011;15862;43.062;25.626;2022-11-20T15:53:26;33.58;;;20.20;;
28682;SDS011;15862;43.062;25.626;2022-11-20T15:55:52;30.35;;;20.33;;
28682;SDS011;15862;43.062;25.626;2022-11-20T15:58:17;35.47;;;24.05;;
28682;SDS011;15862;43.062;25.626;2022-11-20T16:00:43;43.92;;;28.15;;
28682;SDS011;15862;43.062;25.626;2022-11-20T16:03:10;42.80;;;27.00;;
28682;SDS011;15862;43.062;25.626;2022-11-20T16:05:36;39.10;;;23.40;;
28682;SDS011;15862;43.062;25.626;2022-11-20T16:08:02;35.97;;;22.08;;
28682;SDS011;15862;43.062;25.626;2022-11-20T16:10:27;32.72;;;21.02;;
28682;SDS011;15862;43.062;25.626;2022-11-20T16:12:52;34.17;;;21.70;;
28682;SDS011;15862;43.062;25.626;2022-11-20T16:18:12;35.70;;;22.17;;
28682;SDS011;15862;43.062;25.626;2022-11-20T16:20:43;35.33;;;20.00;;
28682;SDS011;15862;43.062;25.626;2022-11-20T16:23:10;27.60;;;17.20;;
28682;SDS011;15862;43.062;25.626;2022-11-20T16:25:36;23.73;;;15.25;;
28682;SDS011;15862;43.062;25.626;2022-11-20T16:28:01;18.33;;;13.30;;